Mallow, Ireland
Current Conditions -  °F | °C
As of 11:00 PM on Friday 24 Oct 2014 (Local Time) from EICK Reporting Station
Broken Clouds Broken Clouds  
Wind Chill: 42°   Ceiling: 4500
Heat Index: 46°   Visibility: 6mi
Dew Point: 46°   Wind: 8mph
Humidity: 100%   Direction: 230°SW
Pressure: 29.94"   Gusts: NA
Location:  52.14°N, 8.66°W
Report Text: EICK 242300Z 23007KT 9999 SCT025 BKN045 08/08 Q1014 NOSIG
Loading
Personal Weather Stations






























Interactive Weather Map
Tropical Storm Tracking
New forecast layout! Learn more

10-Day Weather Forecast

Advertisements
Track Severe Weather on mobile